X  Chiuso Dati meteorologici dell'aviazione (METAR)     EIDW Dublin Airport
Temperatura
63°F Temperatura
61°F Punto di rugiada
94% Umidità



Vento
7 MPH
11 KM/O
3 M/S
6 KTS



350°
N
Condizioni attuali

Chiaro Chiaro
Pressione 1008.92 (hPa) - 29.79 (inHg)
Visibilità 6.2 (miglio) - 10 (km)
Aeroporto
Codice-Aeroporto EIDW

Posizione: Dublin Airport
Distanza: 17 (mi)

Metar:
EIDW 140700Z 35006KT 320V030 CAVOK 17/16 Q1009 NOSIG

Ore: 14-08-2022 08:00 IST